Andale, Kansas
Current Conditions -  °F | °C
As of 5:53 AM on Friday 24 Oct 2014 (Local Time) from KICT Reporting Station
Haze Haze  
Wind Chill: 57°   Ceiling: 25000
Heat Index: 57°   Visibility: 5mi
Dew Point: 54°   Wind: 7mph
Humidity: 89%   Direction: 160°SSE
Pressure: 30.05"   Gusts: NA
Location:  37.79°N, 97.63°W
Report Text: KICT 241053Z 16006KT 5SM BR FEW012 BKN250 14/12 A3005 RMK AO2 SLP168 T01390122
Loading
Personal Weather Stations






























Interactive Weather Map
Tropical Storm Tracking
New forecast layout! Learn more

10-Day Weather Forecast

Advertisements
Track Severe Weather on mobile